sensor_id;sensor_type;location;lat;lon;timestamp;pressure;altitude;pressure_sealevel;temperature;humidity
70971;BME280;58632;51.718;19.446;2022-09-09T00:02:20;99183.97;;;13.77;76.31
70971;BME280;58632;51.718;19.446;2022-09-09T00:04:58;99180.74;;;13.74;76.52
70971;BME280;58632;51.718;19.446;2022-09-09T00:15:19;99175.34;;;13.71;76.59
70971;BME280;58632;51.718;19.446;2022-09-09T00:22:59;99172.68;;;13.89;76.56
70971;BME280;58632;51.718;19.446;2022-09-09T00:25:31;99167.96;;;13.92;76.06
70971;BME280;58632;51.718;19.446;2022-09-09T00:28:00;99167.15;;;13.95;76.32
70971;BME280;58632;51.718;19.446;2022-09-09T00:30:31;99165.77;;;13.93;76.07
70971;BME280;58632;51.718;19.446;2022-09-09T00:33:00;99168.78;;;13.90;76.33
70971;BME280;58632;51.718;19.446;2022-09-09T00:35:38;99164.40;;;13.95;76.45
70971;BME280;58632;51.718;19.446;2022-09-09T00:38:18;99166.89;;;13.97;76.10
70971;BME280;58632;51.718;19.446;2022-09-09T00:43:37;99160.33;;;13.96;76.25
70971;BME280;58632;51.718;19.446;2022-09-09T00:46:19;99159.39;;;14.00;76.18
70971;BME280;58632;51.718;19.446;2022-09-09T00:54:15;99156.79;;;13.85;76.53
70971;BME280;58632;51.718;19.446;2022-09-09T01:02:25;99168.49;;;14.03;76.75
70971;BME280;58632;51.718;19.446;2022-09-09T01:04:53;99167.60;;;13.98;76.47
70971;BME280;58632;51.718;19.446;2022-09-09T01:07:20;99172.47;;;13.97;76.49
70971;BME280;58632;51.718;19.446;2022-09-09T01:09:58;99172.09;;;13.91;76.67
70971;BME280;58632;51.718;19.446;2022-09-09T01:12:46;99176.02;;;13.87;77.05
70971;BME280;58632;51.718;19.446;2022-09-09T01:15:19;99176.00;;;13.86;77.09
70971;BME280;58632;51.718;19.446;2022-09-09T01:18:12;99173.05;;;13.81;77.58
70971;BME280;58632;51.718;19.446;2022-09-09T01:28:48;99175.42;;;13.92;77.15
70971;BME280;58632;51.718;19.446;2022-09-09T01:31:21;99183.63;;;14.01;77.39
70971;BME280;58632;51.718;19.446;2022-09-09T01:33:48;99192.10;;;14.07;76.83
70971;BME280;58632;51.718;19.446;2022-09-09T01:36:42;99197.44;;;14.10;76.78
70971;BME280;58632;51.718;19.446;2022-09-09T01:39:05;99198.30;;;14.03;76.73
70971;BME280;58632;51.718;19.446;2022-09-09T01:41:31;99202.00;;;14.03;77.00
70971;BME280;58632;51.718;19.446;2022-09-09T01:43:57;99207.23;;;14.12;77.03
70971;BME280;58632;51.718;19.446;2022-09-09T01:46:23;99208.86;;;14.29;76.94
70971;BME280;58632;51.718;19.446;2022-09-09T01:48:53;99213.55;;;14.35;76.49
70971;BME280;58632;51.718;19.446;2022-09-09T01:51:20;99212.87;;;14.25;76.12
70971;BME280;58632;51.718;19.446;2022-09-09T01:53:46;99217.54;;;14.22;76.49
70971;BME280;58632;51.718;19.446;2022-09-09T01:56:25;99214.25;;;14.13;76.62
70971;BME280;58632;51.718;19.446;2022-09-09T01:59:10;99219.05;;;13.98;76.96
70971;BME280;58632;51.718;19.446;2022-09-09T02:04:44;99220.52;;;13.93;77.27
70971;BME280;58632;51.718;19.446;2022-09-09T02:10:24;99220.61;;;13.91;77.70
70971;BME280;58632;51.718;19.446;2022-09-09T02:12:55;99217.07;;;13.90;77.45
70971;BME280;58632;51.718;19.446;2022-09-09T02:15:43;99220.44;;;13.98;77.32
70971;BME280;58632;51.718;19.446;2022-09-09T02:18:13;99221.48;;;13.98;77.40
70971;BME280;58632;51.718;19.446;2022-09-09T02:20:41;99225.56;;;13.91;77.60
70971;BME280;58632;51.718;19.446;2022-09-09T02:23:08;99226.27;;;13.85;77.92
70971;BME280;58632;51.718;19.446;2022-09-09T02:25:36;99227.88;;;13.79;77.96
70971;BME280;58632;51.718;19.446;2022-09-09T02:28:06;99231.31;;;13.75;78.58
70971;BME280;58632;51.718;19.446;2022-09-09T02:30:34;99231.27;;;13.69;78.79
70971;BME280;58632;51.718;19.446;2022-09-09T02:33:02;99234.34;;;13.67;78.70
70971;BME280;58632;51.718;19.446;2022-09-09T02:35:34;99236.25;;;13.65;78.63
70971;BME280;58632;51.718;19.446;2022-09-09T02:38:07;99233.36;;;13.68;78.76
70971;BME280;58632;51.718;19.446;2022-09-09T02:40:34;99235.23;;;13.68;78.68
70971;BME280;58632;51.718;19.446;2022-09-09T02:43:00;99236.46;;;13.67;78.89
70971;BME280;58632;51.718;19.446;2022-09-09T02:46:18;99239.27;;;13.69;78.83
70971;BME280;58632;51.718;19.446;2022-09-09T02:48:29;99238.87;;;13.79;78.80
70971;BME280;58632;51.718;19.446;2022-09-09T02:53:43;99241.73;;;13.83;78.58
70971;BME280;58632;51.718;19.446;2022-09-09T02:56:15;99241.77;;;13.88;78.22
70971;BME280;58632;51.718;19.446;2022-09-09T02:58:42;99240.42;;;13.91;78.29
70971;BME280;58632;51.718;19.446;2022-09-09T03:01:08;99241.65;;;13.92;78.28
70971;BME280;58632;51.718;19.446;2022-09-09T03:03:34;99238.82;;;13.93;78.55
70971;BME280;58632;51.718;19.446;2022-09-09T03:06:00;99237.45;;;13.92;78.40
70971;BME280;58632;51.718;19.446;2022-09-09T03:08:26;99238.11;;;13.90;78.59
70971;BME280;58632;51.718;19.446;2022-09-09T03:10:58;99234.94;;;13.88;78.71
70971;BME280;58632;51.718;19.446;2022-09-09T03:13:24;99234.00;;;13.88;78.79
70971;BME280;58632;51.718;19.446;2022-09-09T03:15:50;99234.09;;;13.89;78.73
70971;BME280;58632;51.718;19.446;2022-09-09T03:18:17;99235.29;;;13.93;78.88
70971;BME280;58632;51.718;19.446;2022-09-09T03:20:42;99236.43;;;13.99;78.71
70971;BME280;58632;51.718;19.446;2022-09-09T03:23:09;99235.45;;;13.97;79.03
70971;BME280;58632;51.718;19.446;2022-09-09T03:25:34;99235.55;;;14.02;78.60
70971;BME280;58632;51.718;19.446;2022-09-09T03:28:01;99240.76;;;14.12;78.90
70971;BME280;58632;51.718;19.446;2022-09-09T03:30:27;99240.96;;;14.22;78.50
70971;BME280;58632;51.718;19.446;2022-09-09T03:32:53;99242.48;;;14.22;78.16
70971;BME280;58632;51.718;19.446;2022-09-09T03:35:20;99241.98;;;14.18;78.38
70971;BME280;58632;51.718;19.446;2022-09-09T03:37:46;99239.86;;;14.14;78.34
70971;BME280;58632;51.718;19.446;2022-09-09T03:40:13;99237.25;;;14.11;78.45
70971;BME280;58632;51.718;19.446;2022-09-09T03:42:39;99240.90;;;14.08;78.65
70971;BME280;58632;51.718;19.446;2022-09-09T03:45:07;99243.67;;;14.06;78.65
70971;BME280;58632;51.718;19.446;2022-09-09T03:47:34;99243.13;;;14.05;78.60
70971;BME280;58632;51.718;19.446;2022-09-09T03:50:00;99244.13;;;14.05;78.52
70971;BME280;58632;51.718;19.446;2022-09-09T03:52:26;99241.44;;;14.08;78.77
70971;BME280;58632;51.718;19.446;2022-09-09T03:54:53;99241.77;;;14.15;78.74
70971;BME280;58632;51.718;19.446;2022-09-09T03:57:19;99240.59;;;14.22;78.58
70971;BME280;58632;51.718;19.446;2022-09-09T03:59:45;99243.51;;;14.19;78.61
70971;BME280;58632;51.718;19.446;2022-09-09T04:02:11;99253.34;;;14.23;78.62
70971;BME280;58632;51.718;19.446;2022-09-09T04:04:37;99250.23;;;14.31;78.68
70971;BME280;58632;51.718;19.446;2022-09-09T04:07:03;99252.61;;;14.36;78.59
70971;BME280;58632;51.718;19.446;2022-09-09T04:09:31;99254.11;;;14.37;78.52
70971;BME280;58632;51.718;19.446;2022-09-09T04:11:57;99257.75;;;14.30;78.64
70971;BME280;58632;51.718;19.446;2022-09-09T04:14:24;99260.55;;;14.31;78.66
70971;BME280;58632;51.718;19.446;2022-09-09T04:16:53;99261.84;;;14.30;78.94
70971;BME280;58632;51.718;19.446;2022-09-09T04:19:19;99260.06;;;14.28;78.96
70971;BME280;58632;51.718;19.446;2022-09-09T04:21:44;99260.02;;;14.33;79.27
70971;BME280;58632;51.718;19.446;2022-09-09T04:24:10;99260.93;;;14.35;78.98
70971;BME280;58632;51.718;19.446;2022-09-09T04:26:37;99256.61;;;14.43;79.15
70971;BME280;58632;51.718;19.446;2022-09-09T04:29:04;99262.20;;;14.47;79.12
70971;BME280;58632;51.718;19.446;2022-09-09T04:31:29;99259.83;;;14.50;79.14
70971;BME280;58632;51.718;19.446;2022-09-09T04:33:55;99262.25;;;14.52;79.03
70971;BME280;58632;51.718;19.446;2022-09-09T04:36:22;99256.11;;;14.59;79.30
70971;BME280;58632;51.718;19.446;2022-09-09T04:38:48;99256.09;;;14.73;79.32
70971;BME280;58632;51.718;19.446;2022-09-09T04:41:14;99257.48;;;14.80;79.03
70971;BME280;58632;51.718;19.446;2022-09-09T04:43:41;99255.61;;;14.84;79.00
70971;BME280;58632;51.718;19.446;2022-09-09T04:46:08;99256.18;;;14.90;79.09
70971;BME280;58632;51.718;19.446;2022-09-09T04:48:34;99259.98;;;15.06;79.46
70971;BME280;58632;51.718;19.446;2022-09-09T04:51:03;99258.73;;;15.24;79.05
70971;BME280;58632;51.718;19.446;2022-09-09T04:53:30;99264.84;;;15.39;78.53
70971;BME280;58632;51.718;19.446;2022-09-09T04:56:06;99270.52;;;15.53;78.69
70971;BME280;58632;51.718;19.446;2022-09-09T04:58:32;99265.23;;;15.67;78.39
70971;BME280;58632;51.718;19.446;2022-09-09T05:01:09;99268.41;;;15.72;78.26
70971;BME280;58632;51.718;19.446;2022-09-09T05:03:36;99264.16;;;15.77;77.80
70971;BME280;58632;51.718;19.446;2022-09-09T05:06:09;99267.05;;;15.85;78.04
70971;BME280;58632;51.718;19.446;2022-09-09T05:08:40;99263.58;;;15.94;77.79
70971;BME280;58632;51.718;19.446;2022-09-09T05:13:46;99266.52;;;16.22;77.56
70971;BME280;58632;51.718;19.446;2022-09-09T05:16:13;99267.53;;;16.37;77.61
70971;BME280;58632;51.718;19.446;2022-09-09T05:18:40;99270.34;;;16.52;77.39
70971;BME280;58632;51.718;19.446;2022-09-09T05:21:06;99272.34;;;16.66;76.87
70971;BME280;58632;51.718;19.446;2022-09-09T05:23:33;99269.86;;;16.71;76.61
70971;BME280;58632;51.718;19.446;2022-09-09T05:25:59;99269.77;;;16.76;76.94
70971;BME280;58632;51.718;19.446;2022-09-09T05:28:26;99274.89;;;16.92;76.81
70971;BME280;58632;51.718;19.446;2022-09-09T05:31:07;99274.80;;;17.05;76.31
70971;BME280;58632;51.718;19.446;2022-09-09T05:33:38;99273.63;;;17.19;76.10
70971;BME280;58632;51.718;19.446;2022-09-09T05:36:08;99278.44;;;17.27;76.08
70971;BME280;58632;51.718;19.446;2022-09-09T05:38:35;99278.30;;;17.36;75.79
70971;BME280;58632;51.718;19.446;2022-09-09T05:41:02;99279.69;;;17.40;75.49
70971;BME280;58632;51.718;19.446;2022-09-09T05:43:28;99281.11;;;17.50;75.56
70971;BME280;58632;51.718;19.446;2022-09-09T05:46:06;99279.61;;;17.66;75.38
70971;BME280;58632;51.718;19.446;2022-09-09T05:48:34;99280.67;;;17.78;74.93
70971;BME280;58632;51.718;19.446;2022-09-09T05:51:01;99283.87;;;17.88;74.69
70971;BME280;58632;51.718;19.446;2022-09-09T05:53:28;99286.91;;;17.94;74.28
70971;BME280;58632;51.718;19.446;2022-09-09T05:55:59;99291.41;;;17.92;74.14
70971;BME280;58632;51.718;19.446;2022-09-09T05:58:25;99295.09;;;17.97;74.05
70971;BME280;58632;51.718;19.446;2022-09-09T06:00:51;99294.95;;;17.99;74.22
70971;BME280;58632;51.718;19.446;2022-09-09T06:03:16;99293.25;;;18.05;73.85
70971;BME280;58632;51.718;19.446;2022-09-09T06:05:42;99294.33;;;18.10;74.04
70971;BME280;58632;51.718;19.446;2022-09-09T06:08:08;99296.95;;;18.12;73.89
70971;BME280;58632;51.718;19.446;2022-09-09T06:10:34;99298.96;;;18.17;73.77
70971;BME280;58632;51.718;19.446;2022-09-09T06:13:00;99298.16;;;18.16;73.62
70971;BME280;58632;51.718;19.446;2022-09-09T06:15:26;99299.52;;;18.17;73.58
70971;BME280;58632;51.718;19.446;2022-09-09T06:17:55;99299.28;;;18.29;73.64
70971;BME280;58632;51.718;19.446;2022-09-09T06:20:21;99302.05;;;18.41;73.39
70971;BME280;58632;51.718;19.446;2022-09-09T06:22:47;99306.30;;;18.49;73.29
70971;BME280;58632;51.718;19.446;2022-09-09T06:25:14;99304.42;;;18.54;72.94
70971;BME280;58632;51.718;19.446;2022-09-09T06:27:40;99305.38;;;18.56;72.98
70971;BME280;58632;51.718;19.446;2022-09-09T06:30:08;99306.89;;;18.58;72.89
70971;BME280;58632;51.718;19.446;2022-09-09T06:32:35;99306.77;;;18.63;73.09
70971;BME280;58632;51.718;19.446;2022-09-09T06:35:03;99310.35;;;18.68;72.79
70971;BME280;58632;51.718;19.446;2022-09-09T06:37:29;99311.55;;;18.77;72.63
70971;BME280;58632;51.718;19.446;2022-09-09T06:39:55;99309.23;;;18.90;72.57
70971;BME280;58632;51.718;19.446;2022-09-09T06:42:21;99311.89;;;18.99;72.28
70971;BME280;58632;51.718;19.446;2022-09-09T06:44:46;99314.60;;;19.03;71.90
70971;BME280;58632;51.718;19.446;2022-09-09T06:47:12;99317.23;;;19.06;71.97
70971;BME280;58632;51.718;19.446;2022-09-09T06:49:38;99312.27;;;19.18;71.61
70971;BME280;58632;51.718;19.446;2022-09-09T06:52:04;99311.88;;;19.19;71.33
70971;BME280;58632;51.718;19.446;2022-09-09T06:54:30;99316.17;;;19.23;71.12
70971;BME280;58632;51.718;19.446;2022-09-09T06:56:56;99319.99;;;19.30;71.04
70971;BME280;58632;51.718;19.446;2022-09-09T06:59:22;99322.55;;;19.36;70.88
70971;BME280;58632;51.718;19.446;2022-09-09T07:01:47;99323.44;;;19.38;70.68
70971;BME280;58632;51.718;19.446;2022-09-09T07:04:13;99323.92;;;19.39;70.56
70971;BME280;58632;51.718;19.446;2022-09-09T07:06:41;99324.86;;;19.35;70.46
70971;BME280;58632;51.718;19.446;2022-09-09T07:09:10;99324.88;;;19.39;70.72
70971;BME280;58632;51.718;19.446;2022-09-09T07:11:42;99330.45;;;19.57;70.75
70971;BME280;58632;51.718;19.446;2022-09-09T07:14:08;99327.83;;;19.76;70.25
70971;BME280;58632;51.718;19.446;2022-09-09T07:16:37;99327.03;;;19.94;69.76
70971;BME280;58632;51.718;19.446;2022-09-09T07:19:04;99325.14;;;20.11;69.16
70971;BME280;58632;51.718;19.446;2022-09-09T07:21:30;99326.87;;;20.24;69.09
70971;BME280;58632;51.718;19.446;2022-09-09T07:23:56;99324.33;;;20.38;68.42
70971;BME280;58632;51.718;19.446;2022-09-09T07:26:25;99328.59;;;20.47;68.41
70971;BME280;58632;51.718;19.446;2022-09-09T07:28:51;99336.39;;;20.63;67.71
70971;BME280;58632;51.718;19.446;2022-09-09T07:31:20;99332.86;;;20.75;67.51
70971;BME280;58632;51.718;19.446;2022-09-09T07:33:47;99338.98;;;20.96;67.45
70971;BME280;58632;51.718;19.446;2022-09-09T07:36:16;99338.42;;;21.19;66.88
70971;BME280;58632;51.718;19.446;2022-09-09T07:38:45;99336.27;;;21.42;66.10
70971;BME280;58632;51.718;19.446;2022-09-09T07:41:19;99342.57;;;21.67;66.18
70971;BME280;58632;51.718;19.446;2022-09-09T07:43:47;99341.41;;;21.95;65.68
70971;BME280;58632;51.718;19.446;2022-09-09T07:46:15;99345.23;;;22.18;64.83
70971;BME280;58632;51.718;19.446;2022-09-09T07:48:52;99346.00;;;22.32;63.56
70971;BME280;58632;51.718;19.446;2022-09-09T07:51:22;99347.20;;;22.32;62.58
70971;BME280;58632;51.718;19.446;2022-09-09T07:53:52;99351.40;;;22.33;62.87
70971;BME280;58632;51.718;19.446;2022-09-09T07:56:18;99352.98;;;22.45;62.91
70971;BME280;58632;51.718;19.446;2022-09-09T07:58:45;99356.16;;;22.53;62.76
70971;BME280;58632;51.718;19.446;2022-09-09T08:01:29;99362.70;;;22.61;62.75
70971;BME280;58632;51.718;19.446;2022-09-09T08:03:58;99368.02;;;22.78;62.31
70971;BME280;58632;51.718;19.446;2022-09-09T08:06:25;99364.52;;;22.92;61.88
70971;BME280;58632;51.718;19.446;2022-09-09T08:08:52;99369.81;;;23.07;61.49
70971;BME280;58632;51.718;19.446;2022-09-09T08:11:18;99371.33;;;23.20;61.35
70971;BME280;58632;51.718;19.446;2022-09-09T08:13:44;99370.24;;;23.36;60.90
70971;BME280;58632;51.718;19.446;2022-09-09T08:16:13;99371.98;;;23.61;60.49
70971;BME280;58632;51.718;19.446;2022-09-09T08:18:39;99365.16;;;23.88;59.16
70971;BME280;58632;51.718;19.446;2022-09-09T08:21:11;99366.07;;;24.31;58.76
70971;BME280;58632;51.718;19.446;2022-09-09T08:23:39;99367.79;;;24.71;58.56
70971;BME280;58632;51.718;19.446;2022-09-09T08:26:13;99367.77;;;25.05;57.13
70971;BME280;58632;51.718;19.446;2022-09-09T08:28:41;99369.46;;;25.09;56.36
70971;BME280;58632;51.718;19.446;2022-09-09T08:33:33;99373.00;;;24.75;55.69
70971;BME280;58632;51.718;19.446;2022-09-09T08:35:59;99370.27;;;24.48;55.70
70971;BME280;58632;51.718;19.446;2022-09-09T08:38:25;99369.57;;;24.18;55.62
70971;BME280;58632;51.718;19.446;2022-09-09T08:40:52;99368.88;;;23.95;56.21
70971;BME280;58632;51.718;19.446;2022-09-09T08:43:25;99378.98;;;23.88;56.48
70971;BME280;58632;51.718;19.446;2022-09-09T08:51:14;99383.91;;;24.68;55.36
70971;BME280;58632;51.718;19.446;2022-09-09T08:53:42;99380.95;;;24.86;54.88
70971;BME280;58632;51.718;19.446;2022-09-09T08:56:18;99383.23;;;25.05;54.95
70971;BME280;58632;51.718;19.446;2022-09-09T08:58:51;99378.14;;;24.90;54.56
70971;BME280;58632;51.718;19.446;2022-09-09T09:01:35;99380.33;;;24.59;54.46
70971;BME280;58632;51.718;19.446;2022-09-09T09:04:26;99382.23;;;24.30;54.40
70971;BME280;58632;51.718;19.446;2022-09-09T09:07:30;99383.91;;;24.35;55.55
70971;BME280;58632;51.718;19.446;2022-09-09T09:10:12;99383.67;;;24.55;54.37
70971;BME280;58632;51.718;19.446;2022-09-09T09:12:44;99385.02;;;24.82;54.44
70971;BME280;58632;51.718;19.446;2022-09-09T09:15:21;99383.36;;;25.10;54.89
70971;BME280;58632;51.718;19.446;2022-09-09T09:17:48;99388.24;;;25.14;53.43
70971;BME280;58632;51.718;19.446;2022-09-09T09:20:15;99389.77;;;24.84;52.94
70971;BME280;58632;51.718;19.446;2022-09-09T09:22:50;99391.38;;;24.38;53.47
70971;BME280;58632;51.718;19.446;2022-09-09T09:25:23;99397.39;;;23.91;53.73
70971;BME280;58632;51.718;19.446;2022-09-09T09:27:51;99399.36;;;23.50;54.33
70971;BME280;58632;51.718;19.446;2022-09-09T09:30:22;99400.35;;;23.41;54.89
70971;BME280;58632;51.718;19.446;2022-09-09T09:33:01;99396.11;;;23.66;55.49
70971;BME280;58632;51.718;19.446;2022-09-09T09:35:28;99393.77;;;24.02;54.49
70971;BME280;58632;51.718;19.446;2022-09-09T09:37:54;99390.66;;;24.23;54.56
70971;BME280;58632;51.718;19.446;2022-09-09T09:40:21;99385.45;;;24.38;54.06
70971;BME280;58632;51.718;19.446;2022-09-09T09:42:59;99386.98;;;24.43;54.06
70971;BME280;58632;51.718;19.446;2022-09-09T09:45:42;99385.73;;;24.31;53.59
70971;BME280;58632;51.718;19.446;2022-09-09T09:48:11;99388.80;;;24.19;53.45
70971;BME280;58632;51.718;19.446;2022-09-09T09:50:52;99393.71;;;23.96;53.33
70971;BME280;58632;51.718;19.446;2022-09-09T09:53:23;99395.70;;;23.74;53.59
70971;BME280;58632;51.718;19.446;2022-09-09T09:55:57;99404.67;;;23.70;53.76
70971;BME280;58632;51.718;19.446;2022-09-09T09:58:25;99405.13;;;23.75;54.13
70971;BME280;58632;51.718;19.446;2022-09-09T10:00:54;99403.08;;;23.70;53.87
70971;BME280;58632;51.718;19.446;2022-09-09T10:03:27;99409.39;;;23.70;54.35
70971;BME280;58632;51.718;19.446;2022-09-09T10:05:54;99411.20;;;23.86;54.37
70971;BME280;58632;51.718;19.446;2022-09-09T10:08:23;99418.27;;;23.88;53.73
70971;BME280;58632;51.718;19.446;2022-09-09T10:19:04;99419.73;;;24.08;52.92
70971;BME280;58632;51.718;19.446;2022-09-09T10:26:55;99421.09;;;24.23;52.50
70971;BME280;58632;51.718;19.446;2022-09-09T10:29:47;99425.20;;;24.37;52.52
70971;BME280;58632;51.718;19.446;2022-09-09T10:32:40;99431.73;;;24.33;52.01
70971;BME280;58632;51.718;19.446;2022-09-09T10:35:14;99434.47;;;24.12;52.01
70971;BME280;58632;51.718;19.446;2022-09-09T10:38:17;99438.10;;;23.98;52.23
70971;BME280;58632;51.718;19.446;2022-09-09T10:49:18;99438.10;;;24.30;50.61
70971;BME280;58632;51.718;19.446;2022-09-09T10:54:58;99445.02;;;24.22;50.46
70971;BME280;58632;51.718;19.446;2022-09-09T10:57:42;99442.93;;;24.18;50.24
70971;BME280;58632;51.718;19.446;2022-09-09T11:00:20;99442.88;;;24.31;50.84
70971;BME280;58632;51.718;19.446;2022-09-09T11:03:00;99444.41;;;24.62;50.63
70971;BME280;58632;51.718;19.446;2022-09-09T11:08:36;99455.27;;;24.91;49.73
70971;BME280;58632;51.718;19.446;2022-09-09T11:16:40;99454.64;;;24.99;48.78
70971;BME280;58632;51.718;19.446;2022-09-09T11:19:41;99450.63;;;25.00;48.48
70971;BME280;58632;51.718;19.446;2022-09-09T11:22:21;99451.56;;;25.06;48.74
70971;BME280;58632;51.718;19.446;2022-09-09T11:27:37;99457.05;;;25.11;47.63
70971;BME280;58632;51.718;19.446;2022-09-09T11:36:24;99438.17;;;24.80;48.20
70971;BME280;58632;51.718;19.446;2022-09-09T11:38:58;99437.45;;;24.71;47.96
70971;BME280;58632;51.718;19.446;2022-09-09T11:41:34;99437.83;;;24.59;48.01
70971;BME280;58632;51.718;19.446;2022-09-09T11:44:10;99435.95;;;24.45;48.00
70971;BME280;58632;51.718;19.446;2022-09-09T11:46:38;99431.91;;;24.42;48.23
70971;BME280;58632;51.718;19.446;2022-09-09T11:49:06;99432.64;;;24.32;48.06
70971;BME280;58632;51.718;19.446;2022-09-09T11:51:33;99430.59;;;24.20;48.70
70971;BME280;58632;51.718;19.446;2022-09-09T11:54:03;99427.94;;;24.10;48.70
70971;BME280;58632;51.718;19.446;2022-09-09T11:56:48;99424.77;;;24.03;48.75
70971;BME280;58632;51.718;19.446;2022-09-09T11:59:21;99428.20;;;24.04;49.20
70971;BME280;58632;51.718;19.446;2022-09-09T12:02:16;99431.43;;;23.95;48.75
70971;BME280;58632;51.718;19.446;2022-09-09T12:04:50;99425.59;;;23.85;49.03
70971;BME280;58632;51.718;19.446;2022-09-09T12:09:56;99406.98;;;24.11;49.42
70971;BME280;58632;51.718;19.446;2022-09-09T12:12:31;99406.51;;;24.21;49.24
70971;BME280;58632;51.718;19.446;2022-09-09T12:17:42;99401.00;;;24.35;48.69
70971;BME280;58632;51.718;19.446;2022-09-09T12:25:58;99406.44;;;24.70;48.06
70971;BME280;58632;51.718;19.446;2022-09-09T12:31:06;99408.86;;;25.04;47.93
70971;BME280;58632;51.718;19.446;2022-09-09T12:33:37;99415.42;;;25.29;48.23
70971;BME280;58632;51.718;19.446;2022-09-09T12:36:11;99416.90;;;25.47;47.57
70971;BME280;58632;51.718;19.446;2022-09-09T12:38:39;99421.25;;;25.54;46.95
70971;BME280;58632;51.718;19.446;2022-09-09T12:41:06;99423.56;;;25.58;46.99
70971;BME280;58632;51.718;19.446;2022-09-09T12:43:31;99427.34;;;25.58;46.58
70971;BME280;58632;51.718;19.446;2022-09-09T12:46:03;99421.98;;;25.68;46.83
70971;BME280;58632;51.718;19.446;2022-09-09T12:48:38;99414.40;;;25.81;46.13
70971;BME280;58632;51.718;19.446;2022-09-09T12:51:29;99416.07;;;25.86;45.72
70971;BME280;58632;51.718;19.446;2022-09-09T12:53:57;99417.35;;;25.86;45.48
70971;BME280;58632;51.718;19.446;2022-09-09T12:56:31;99420.98;;;25.97;46.75
70971;BME280;58632;51.718;19.446;2022-09-09T12:58:58;99425.55;;;26.14;46.34
70971;BME280;58632;51.718;19.446;2022-09-09T13:01:26;99424.64;;;26.11;46.50
70971;BME280;58632;51.718;19.446;2022-09-09T13:03:52;99420.81;;;26.04;46.01
70971;BME280;58632;51.718;19.446;2022-09-09T13:06:23;99415.39;;;26.13;46.99
70971;BME280;58632;51.718;19.446;2022-09-09T13:08:53;99411.23;;;26.26;47.24
70971;BME280;58632;51.718;19.446;2022-09-09T13:11:24;99414.02;;;26.33;46.21
70971;BME280;58632;51.718;19.446;2022-09-09T13:13:55;99410.83;;;26.42;45.66
70971;BME280;58632;51.718;19.446;2022-09-09T13:16:26;99408.73;;;26.53;45.19
70971;BME280;58632;51.718;19.446;2022-09-09T13:18:58;99410.16;;;26.50;44.75
70971;BME280;58632;51.718;19.446;2022-09-09T13:21:36;99408.05;;;26.28;44.97
70971;BME280;58632;51.718;19.446;2022-09-09T13:24:04;99407.29;;;26.10;45.36
70971;BME280;58632;51.718;19.446;2022-09-09T13:26:33;99406.94;;;26.11;45.13
70971;BME280;58632;51.718;19.446;2022-09-09T13:29:17;99408.20;;;25.95;45.43
70971;BME280;58632;51.718;19.446;2022-09-09T13:31:44;99411.52;;;25.85;45.55
70971;BME280;58632;51.718;19.446;2022-09-09T13:34:22;99410.39;;;25.70;45.27
70971;BME280;58632;51.718;19.446;2022-09-09T13:36:56;99407.70;;;25.54;45.54
70971;BME280;58632;51.718;19.446;2022-09-09T13:39:24;99407.17;;;25.37;45.12
70971;BME280;58632;51.718;19.446;2022-09-09T13:41:50;99407.61;;;25.19;45.25
70971;BME280;58632;51.718;19.446;2022-09-09T13:44:30;99403.84;;;25.14;45.98
70971;BME280;58632;51.718;19.446;2022-09-09T13:47:18;99401.35;;;24.90;46.96
70971;BME280;58632;51.718;19.446;2022-09-09T13:49:45;99396.11;;;24.52;46.77
70971;BME280;58632;51.718;19.446;2022-09-09T13:52:16;99399.54;;;24.37;47.30
70971;BME280;58632;51.718;19.446;2022-09-09T13:54:42;99403.88;;;24.47;47.05
70971;BME280;58632;51.718;19.446;2022-09-09T13:57:19;99403.52;;;24.76;47.38
70971;BME280;58632;51.718;19.446;2022-09-09T13:59:46;99400.89;;;25.10;46.36
70971;BME280;58632;51.718;19.446;2022-09-09T14:02:12;99400.02;;;25.35;46.31
70971;BME280;58632;51.718;19.446;2022-09-09T14:04:38;99393.67;;;25.55;45.89
70971;BME280;58632;51.718;19.446;2022-09-09T14:07:11;99391.19;;;25.62;45.34
70971;BME280;58632;51.718;19.446;2022-09-09T14:09:38;99390.39;;;25.72;44.52
70971;BME280;58632;51.718;19.446;2022-09-09T14:12:04;99384.23;;;25.72;44.60
70971;BME280;58632;51.718;19.446;2022-09-09T14:14:30;99388.20;;;25.78;44.47
70971;BME280;58632;51.718;19.446;2022-09-09T14:16:56;99394.02;;;25.71;44.50
70971;BME280;58632;51.718;19.446;2022-09-09T14:19:22;99394.16;;;25.69;44.77
70971;BME280;58632;51.718;19.446;2022-09-09T14:21:48;99394.59;;;25.74;44.78
70971;BME280;58632;51.718;19.446;2022-09-09T14:24:14;99395.18;;;25.77;45.02
70971;BME280;58632;51.718;19.446;2022-09-09T14:26:39;99396.38;;;25.81;44.76
70971;BME280;58632;51.718;19.446;2022-09-09T14:29:06;99398.30;;;25.86;44.63
70971;BME280;58632;51.718;19.446;2022-09-09T14:31:32;99399.86;;;25.76;44.92
70971;BME280;58632;51.718;19.446;2022-09-09T14:33:58;99398.01;;;25.73;44.98
70971;BME280;58632;51.718;19.446;2022-09-09T14:36:24;99394.96;;;25.73;44.64
70971;BME280;58632;51.718;19.446;2022-09-09T14:38:50;99388.23;;;25.76;44.20
70971;BME280;58632;51.718;19.446;2022-09-09T14:41:18;99387.11;;;25.80;44.03
70971;BME280;58632;51.718;19.446;2022-09-09T14:43:45;99385.98;;;25.80;44.33
70971;BME280;58632;51.718;19.446;2022-09-09T14:46:14;99392.76;;;25.56;44.56
70971;BME280;58632;51.718;19.446;2022-09-09T14:48:40;99395.65;;;25.45;45.36
70971;BME280;58632;51.718;19.446;2022-09-09T14:51:07;99389.03;;;25.44;45.43
70971;BME280;58632;51.718;19.446;2022-09-09T14:53:33;99381.93;;;25.53;45.77
70971;BME280;58632;51.718;19.446;2022-09-09T14:56:14;99380.65;;;25.68;46.31
70971;BME280;58632;51.718;19.446;2022-09-09T14:58:39;99382.12;;;25.48;45.44